sensor_id;sensor_type;location;lat;lon;timestamp;temperature;humidity
64034;SHT31;50280;49.864;8.638;2022-09-09T00:01:31;17.79;69.60
64034;SHT31;50280;49.864;8.638;2022-09-09T00:04:23;17.76;69.71
64034;SHT31;50280;49.864;8.638;2022-09-09T00:07:03;17.76;69.86
64034;SHT31;50280;49.864;8.638;2022-09-09T00:09:46;17.74;69.98
64034;SHT31;50280;49.864;8.638;2022-09-09T00:12:31;17.68;70.04
64034;SHT31;50280;49.864;8.638;2022-09-09T00:15:19;17.68;70.15
64034;SHT31;50280;49.864;8.638;2022-09-09T00:17:58;17.69;70.19
64034;SHT31;50280;49.864;8.638;2022-09-09T00:20:49;17.69;70.12
64034;SHT31;50280;49.864;8.638;2022-09-09T00:23:33;17.72;70.08
64034;SHT31;50280;49.864;8.638;2022-09-09T00:26:16;17.75;70.05
64034;SHT31;50280;49.864;8.638;2022-09-09T00:29:02;17.79;69.86
64034;SHT31;50280;49.864;8.638;2022-09-09T00:31:47;17.82;69.96
64034;SHT31;50280;49.864;8.638;2022-09-09T00:34:22;17.83;69.74
64034;SHT31;50280;49.864;8.638;2022-09-09T00:36:58;17.83;69.85
64034;SHT31;50280;49.864;8.638;2022-09-09T00:39:35;17.86;69.94
64034;SHT31;50280;49.864;8.638;2022-09-09T00:42:15;17.86;69.72
64034;SHT31;50280;49.864;8.638;2022-09-09T00:44:58;17.87;69.81
64034;SHT31;50280;49.864;8.638;2022-09-09T00:47:53;17.87;69.77
64034;SHT31;50280;49.864;8.638;2022-09-09T00:50:35;17.92;69.66
64034;SHT31;50280;49.864;8.638;2022-09-09T00:53:30;17.92;69.65
64034;SHT31;50280;49.864;8.638;2022-09-09T00:56:18;17.95;69.67
64034;SHT31;50280;49.864;8.638;2022-09-09T00:59:04;17.95;69.60
64034;SHT31;50280;49.864;8.638;2022-09-09T01:01:56;17.96;69.49
64034;SHT31;50280;49.864;8.638;2022-09-09T01:04:34;17.97;69.43
64034;SHT31;50280;49.864;8.638;2022-09-09T01:07:16;17.99;69.50
64034;SHT31;50280;49.864;8.638;2022-09-09T01:09:52;17.96;69.50
64034;SHT31;50280;49.864;8.638;2022-09-09T01:12:38;17.95;69.52
64034;SHT31;50280;49.864;8.638;2022-09-09T01:15:18;17.93;69.61
64034;SHT31;50280;49.864;8.638;2022-09-09T01:18:00;17.93;69.55
64034;SHT31;50280;49.864;8.638;2022-09-09T01:20:54;17.93;69.54
64034;SHT31;50280;49.864;8.638;2022-09-09T01:24:05;17.93;69.51
64034;SHT31;50280;49.864;8.638;2022-09-09T01:26:56;17.92;69.56
64034;SHT31;50280;49.864;8.638;2022-09-09T01:29:33;17.92;69.46
64034;SHT31;50280;49.864;8.638;2022-09-09T01:32:40;17.92;69.69
64034;SHT31;50280;49.864;8.638;2022-09-09T01:35:26;17.87;69.71
64034;SHT31;50280;49.864;8.638;2022-09-09T01:38:11;17.87;69.90
64034;SHT31;50280;49.864;8.638;2022-09-09T01:40:45;17.86;70.01
64034;SHT31;50280;49.864;8.638;2022-09-09T01:43:21;17.82;70.12
64034;SHT31;50280;49.864;8.638;2022-09-09T01:45:59;17.79;70.32
64034;SHT31;50280;49.864;8.638;2022-09-09T01:48:33;17.76;70.43
64034;SHT31;50280;49.864;8.638;2022-09-09T01:51:07;17.72;70.75
64034;SHT31;50280;49.864;8.638;2022-09-09T01:53:41;17.65;70.91
64034;SHT31;50280;49.864;8.638;2022-09-09T01:56:26;17.62;71.23
64034;SHT31;50280;49.864;8.638;2022-09-09T01:59:25;17.59;71.31
64034;SHT31;50280;49.864;8.638;2022-09-09T02:02:17;17.55;71.58
64034;SHT31;50280;49.864;8.638;2022-09-09T02:04:59;17.54;71.70
64034;SHT31;50280;49.864;8.638;2022-09-09T02:07:49;17.50;71.84
64034;SHT31;50280;49.864;8.638;2022-09-09T02:10:31;17.48;71.98
64034;SHT31;50280;49.864;8.638;2022-09-09T02:13:20;17.41;72.12
64034;SHT31;50280;49.864;8.638;2022-09-09T02:15:59;17.42;72.33
64034;SHT31;50280;49.864;8.638;2022-09-09T02:18:44;17.42;72.39
64034;SHT31;50280;49.864;8.638;2022-09-09T02:21:27;17.40;72.44
64034;SHT31;50280;49.864;8.638;2022-09-09T02:24:05;17.40;72.54
64034;SHT31;50280;49.864;8.638;2022-09-09T02:26:42;17.40;72.59
64034;SHT31;50280;49.864;8.638;2022-09-09T02:29:23;17.41;72.56
64034;SHT31;50280;49.864;8.638;2022-09-09T02:32:06;17.42;72.41
64034;SHT31;50280;49.864;8.638;2022-09-09T02:34:45;17.45;72.39
64034;SHT31;50280;49.864;8.638;2022-09-09T02:37:38;17.47;72.44
64034;SHT31;50280;49.864;8.638;2022-09-09T02:40:14;17.47;72.54
64034;SHT31;50280;49.864;8.638;2022-09-09T02:42:48;17.44;72.51
64034;SHT31;50280;49.864;8.638;2022-09-09T02:45:25;17.47;72.48
64034;SHT31;50280;49.864;8.638;2022-09-09T02:48:10;17.45;72.56
64034;SHT31;50280;49.864;8.638;2022-09-09T02:50:55;17.47;72.65
64034;SHT31;50280;49.864;8.638;2022-09-09T02:53:43;17.45;72.73
64034;SHT31;50280;49.864;8.638;2022-09-09T02:56:31;17.41;72.70
64034;SHT31;50280;49.864;8.638;2022-09-09T02:59:12;17.42;72.76
64034;SHT31;50280;49.864;8.638;2022-09-09T03:01:45;17.38;72.99
64034;SHT31;50280;49.864;8.638;2022-09-09T03:04:19;17.38;73.08
64034;SHT31;50280;49.864;8.638;2022-09-09T03:06:52;17.37;73.18
64034;SHT31;50280;49.864;8.638;2022-09-09T03:09:24;17.33;73.41
64034;SHT31;50280;49.864;8.638;2022-09-09T03:11:56;17.30;73.59
64034;SHT31;50280;49.864;8.638;2022-09-09T03:14:29;17.26;73.60
64034;SHT31;50280;49.864;8.638;2022-09-09T03:17:02;17.24;73.78
64034;SHT31;50280;49.864;8.638;2022-09-09T03:19:36;17.22;73.82
64034;SHT31;50280;49.864;8.638;2022-09-09T03:22:09;17.17;73.95
64034;SHT31;50280;49.864;8.638;2022-09-09T03:24:42;17.17;73.96
64034;SHT31;50280;49.864;8.638;2022-09-09T03:27:15;17.13;74.08
64034;SHT31;50280;49.864;8.638;2022-09-09T03:29:49;17.13;74.04
64034;SHT31;50280;49.864;8.638;2022-09-09T03:32:21;17.07;74.26
64034;SHT31;50280;49.864;8.638;2022-09-09T03:34:55;17.10;74.43
64034;SHT31;50280;49.864;8.638;2022-09-09T03:37:28;17.09;74.39
64034;SHT31;50280;49.864;8.638;2022-09-09T03:40:00;17.03;74.51
64034;SHT31;50280;49.864;8.638;2022-09-09T03:42:34;17.03;74.63
64034;SHT31;50280;49.864;8.638;2022-09-09T03:45:08;17.02;74.80
64034;SHT31;50280;49.864;8.638;2022-09-09T03:47:43;17.03;74.93
64034;SHT31;50280;49.864;8.638;2022-09-09T03:50:17;17.05;75.01
64034;SHT31;50280;49.864;8.638;2022-09-09T03:52:49;17.02;75.19
64034;SHT31;50280;49.864;8.638;2022-09-09T03:55:22;16.97;75.32
64034;SHT31;50280;49.864;8.638;2022-09-09T03:57:54;16.90;75.51
64034;SHT31;50280;49.864;8.638;2022-09-09T04:00:26;16.87;75.71
64034;SHT31;50280;49.864;8.638;2022-09-09T04:02:59;16.87;75.81
64034;SHT31;50280;49.864;8.638;2022-09-09T04:05:33;16.80;75.90
64034;SHT31;50280;49.864;8.638;2022-09-09T04:08:05;16.76;76.04
64034;SHT31;50280;49.864;8.638;2022-09-09T04:10:38;16.73;76.20
64034;SHT31;50280;49.864;8.638;2022-09-09T04:13:10;16.72;76.31
64034;SHT31;50280;49.864;8.638;2022-09-09T04:15:43;16.72;76.36
64034;SHT31;50280;49.864;8.638;2022-09-09T04:18:25;16.71;76.30
64034;SHT31;50280;49.864;8.638;2022-09-09T04:20:59;16.69;76.30
64034;SHT31;50280;49.864;8.638;2022-09-09T04:23:32;16.72;76.36
64034;SHT31;50280;49.864;8.638;2022-09-09T04:26:05;16.72;76.13
64034;SHT31;50280;49.864;8.638;2022-09-09T04:28:38;16.73;76.12
64034;SHT31;50280;49.864;8.638;2022-09-09T04:31:15;16.71;76.16
64034;SHT31;50280;49.864;8.638;2022-09-09T04:33:49;16.71;76.19
64034;SHT31;50280;49.864;8.638;2022-09-09T04:36:24;16.69;76.17
64034;SHT31;50280;49.864;8.638;2022-09-09T04:38:56;16.65;76.17
64034;SHT31;50280;49.864;8.638;2022-09-09T04:41:28;16.65;76.22
64034;SHT31;50280;49.864;8.638;2022-09-09T04:44:01;16.62;76.26
64034;SHT31;50280;49.864;8.638;2022-09-09T04:46:33;16.62;76.27
64034;SHT31;50280;49.864;8.638;2022-09-09T04:49:06;16.58;76.34
64034;SHT31;50280;49.864;8.638;2022-09-09T04:51:40;16.55;76.49
64034;SHT31;50280;49.864;8.638;2022-09-09T04:54:12;16.54;76.42
64034;SHT31;50280;49.864;8.638;2022-09-09T04:56:44;16.48;76.63
64034;SHT31;50280;49.864;8.638;2022-09-09T04:59:17;16.47;76.79
64034;SHT31;50280;49.864;8.638;2022-09-09T05:01:49;16.48;76.90
64034;SHT31;50280;49.864;8.638;2022-09-09T05:04:22;16.41;76.88
64034;SHT31;50280;49.864;8.638;2022-09-09T05:06:55;16.38;76.89
64034;SHT31;50280;49.864;8.638;2022-09-09T05:09:28;16.37;76.69
64034;SHT31;50280;49.864;8.638;2022-09-09T05:12:00;16.37;76.51
64034;SHT31;50280;49.864;8.638;2022-09-09T05:14:33;16.37;76.49
64034;SHT31;50280;49.864;8.638;2022-09-09T05:17:06;16.38;76.41
64034;SHT31;50280;49.864;8.638;2022-09-09T05:19:38;16.40;76.40
64034;SHT31;50280;49.864;8.638;2022-09-09T05:22:12;16.40;76.38
64034;SHT31;50280;49.864;8.638;2022-09-09T05:24:44;16.40;76.36
64034;SHT31;50280;49.864;8.638;2022-09-09T05:27:16;16.41;76.39
64034;SHT31;50280;49.864;8.638;2022-09-09T05:29:49;16.42;76.38
64034;SHT31;50280;49.864;8.638;2022-09-09T05:32:21;16.44;76.33
64034;SHT31;50280;49.864;8.638;2022-09-09T05:34:54;16.42;76.43
64034;SHT31;50280;49.864;8.638;2022-09-09T05:37:27;16.45;76.51
64034;SHT31;50280;49.864;8.638;2022-09-09T05:40:00;16.45;76.56
64034;SHT31;50280;49.864;8.638;2022-09-09T05:42:33;16.44;76.65
64034;SHT31;50280;49.864;8.638;2022-09-09T05:45:06;16.44;76.76
64034;SHT31;50280;49.864;8.638;2022-09-09T05:47:40;16.41;76.79
64034;SHT31;50280;49.864;8.638;2022-09-09T05:50:12;16.38;76.87
64034;SHT31;50280;49.864;8.638;2022-09-09T05:52:46;16.37;77.07
64034;SHT31;50280;49.864;8.638;2022-09-09T05:55:18;16.38;77.20
64034;SHT31;50280;49.864;8.638;2022-09-09T05:57:51;16.38;77.05
64034;SHT31;50280;49.864;8.638;2022-09-09T06:00:23;16.41;77.02
64034;SHT31;50280;49.864;8.638;2022-09-09T06:02:55;16.45;76.99
64034;SHT31;50280;49.864;8.638;2022-09-09T06:05:28;16.47;76.96
64034;SHT31;50280;49.864;8.638;2022-09-09T06:08:01;16.48;76.95
64034;SHT31;50280;49.864;8.638;2022-09-09T06:10:34;16.52;76.66
64034;SHT31;50280;49.864;8.638;2022-09-09T06:13:06;16.55;77.02
64034;SHT31;50280;49.864;8.638;2022-09-09T06:15:39;16.62;76.58
64034;SHT31;50280;49.864;8.638;2022-09-09T06:18:11;16.69;76.30
64034;SHT31;50280;49.864;8.638;2022-09-09T06:20:53;16.79;76.02
64034;SHT31;50280;49.864;8.638;2022-09-09T06:23:28;16.85;75.91
64034;SHT31;50280;49.864;8.638;2022-09-09T06:26:05;16.90;75.55
64034;SHT31;50280;49.864;8.638;2022-09-09T06:28:41;16.97;75.30
64034;SHT31;50280;49.864;8.638;2022-09-09T06:31:16;17.02;75.24
64034;SHT31;50280;49.864;8.638;2022-09-09T06:33:51;17.09;75.04
64034;SHT31;50280;49.864;8.638;2022-09-09T06:36:33;17.16;75.00
64034;SHT31;50280;49.864;8.638;2022-09-09T06:39:10;17.22;74.60
64034;SHT31;50280;49.864;8.638;2022-09-09T06:41:42;17.30;74.46
64034;SHT31;50280;49.864;8.638;2022-09-09T06:44:15;17.33;74.17
64034;SHT31;50280;49.864;8.638;2022-09-09T06:46:47;17.37;74.20
64034;SHT31;50280;49.864;8.638;2022-09-09T06:49:19;17.35;74.30
64034;SHT31;50280;49.864;8.638;2022-09-09T06:51:52;17.37;74.33
64034;SHT31;50280;49.864;8.638;2022-09-09T06:54:25;17.38;74.14
64034;SHT31;50280;49.864;8.638;2022-09-09T06:56:58;17.44;74.00
64034;SHT31;50280;49.864;8.638;2022-09-09T06:59:30;17.45;73.91
64034;SHT31;50280;49.864;8.638;2022-09-09T07:02:02;17.40;74.21
64034;SHT31;50280;49.864;8.638;2022-09-09T07:04:35;17.34;74.47
64034;SHT31;50280;49.864;8.638;2022-09-09T07:07:07;17.35;74.39
64034;SHT31;50280;49.864;8.638;2022-09-09T07:09:41;17.35;74.22
64034;SHT31;50280;49.864;8.638;2022-09-09T07:12:13;17.40;74.34
64034;SHT31;50280;49.864;8.638;2022-09-09T07:14:45;17.40;74.50
64034;SHT31;50280;49.864;8.638;2022-09-09T07:17:18;17.41;74.49
64034;SHT31;50280;49.864;8.638;2022-09-09T07:19:50;17.38;74.38
64034;SHT31;50280;49.864;8.638;2022-09-09T07:22:22;17.37;74.55
64034;SHT31;50280;49.864;8.638;2022-09-09T07:24:56;17.37;74.53
64034;SHT31;50280;49.864;8.638;2022-09-09T07:27:28;17.38;74.51
64034;SHT31;50280;49.864;8.638;2022-09-09T07:30:01;17.41;74.45
64034;SHT31;50280;49.864;8.638;2022-09-09T07:32:34;17.42;74.60
64034;SHT31;50280;49.864;8.638;2022-09-09T07:35:07;17.44;74.51
64034;SHT31;50280;49.864;8.638;2022-09-09T07:37:39;17.47;74.34
64034;SHT31;50280;49.864;8.638;2022-09-09T07:40:14;17.52;74.38
64034;SHT31;50280;49.864;8.638;2022-09-09T07:42:46;17.55;74.34
64034;SHT31;50280;49.864;8.638;2022-09-09T07:45:19;17.59;74.13
64034;SHT31;50280;49.864;8.638;2022-09-09T07:47:51;17.67;73.78
64034;SHT31;50280;49.864;8.638;2022-09-09T07:50:25;17.75;73.41
64034;SHT31;50280;49.864;8.638;2022-09-09T07:52:58;17.82;73.46
64034;SHT31;50280;49.864;8.638;2022-09-09T07:55:32;17.87;72.84
64034;SHT31;50280;49.864;8.638;2022-09-09T07:58:04;17.97;72.84
64034;SHT31;50280;49.864;8.638;2022-09-09T08:00:36;18.02;72.60
64034;SHT31;50280;49.864;8.638;2022-09-09T08:03:09;18.07;72.39
64034;SHT31;50280;49.864;8.638;2022-09-09T08:05:41;18.13;72.47
64034;SHT31;50280;49.864;8.638;2022-09-09T08:08:13;18.16;72.19
64034;SHT31;50280;49.864;8.638;2022-09-09T08:10:47;18.21;72.24
64034;SHT31;50280;49.864;8.638;2022-09-09T08:13:19;18.23;71.96
64034;SHT31;50280;49.864;8.638;2022-09-09T08:15:52;18.24;71.73
64034;SHT31;50280;49.864;8.638;2022-09-09T08:18:26;18.24;71.62
64034;SHT31;50280;49.864;8.638;2022-09-09T08:21:05;18.26;71.87
64034;SHT31;50280;49.864;8.638;2022-09-09T08:23:40;18.23;71.71
64034;SHT31;50280;49.864;8.638;2022-09-09T08:26:16;18.30;71.63
64034;SHT31;50280;49.864;8.638;2022-09-09T08:28:52;18.40;70.09
64034;SHT31;50280;49.864;8.638;2022-09-09T08:31:29;18.48;70.77
64034;SHT31;50280;49.864;8.638;2022-09-09T08:34:04;18.48;70.63
64034;SHT31;50280;49.864;8.638;2022-09-09T08:36:39;18.52;70.33
64034;SHT31;50280;49.864;8.638;2022-09-09T08:39:16;18.49;69.83
64034;SHT31;50280;49.864;8.638;2022-09-09T08:42:17;18.49;70.28
64034;SHT31;50280;49.864;8.638;2022-09-09T08:45:14;18.48;69.64
64034;SHT31;50280;49.864;8.638;2022-09-09T08:48:15;18.47;69.53
64034;SHT31;50280;49.864;8.638;2022-09-09T08:51:09;18.47;69.86
64034;SHT31;50280;49.864;8.638;2022-09-09T08:53:47;18.48;69.92
64034;SHT31;50280;49.864;8.638;2022-09-09T08:56:24;18.51;69.04
64034;SHT31;50280;49.864;8.638;2022-09-09T08:59:02;18.57;69.20
64034;SHT31;50280;49.864;8.638;2022-09-09T09:01:42;18.64;70.24
64034;SHT31;50280;49.864;8.638;2022-09-09T09:04:38;18.62;72.13
64034;SHT31;50280;49.864;8.638;2022-09-09T09:07:39;18.58;72.63
64034;SHT31;50280;49.864;8.638;2022-09-09T09:10:40;18.31;75.43
64034;SHT31;50280;49.864;8.638;2022-09-09T09:13:20;18.03;77.27
64034;SHT31;50280;49.864;8.638;2022-09-09T09:16:06;17.82;78.17
64034;SHT31;50280;49.864;8.638;2022-09-09T09:18:52;17.68;77.81
64034;SHT31;50280;49.864;8.638;2022-09-09T09:21:34;17.57;78.16
64034;SHT31;50280;49.864;8.638;2022-09-09T09:24:17;17.81;79.33
64034;SHT31;50280;49.864;8.638;2022-09-09T09:26:52;18.17;77.90
64034;SHT31;50280;49.864;8.638;2022-09-09T09:29:26;18.64;74.81
64034;SHT31;50280;49.864;8.638;2022-09-09T09:32:02;19.16;72.54
64034;SHT31;50280;49.864;8.638;2022-09-09T09:34:36;19.46;70.64
64034;SHT31;50280;49.864;8.638;2022-09-09T09:37:15;19.31;70.52
64034;SHT31;50280;49.864;8.638;2022-09-09T09:40:08;19.10;70.24
64034;SHT31;50280;49.864;8.638;2022-09-09T09:42:48;18.95;71.39
64034;SHT31;50280;49.864;8.638;2022-09-09T09:45:32;18.93;70.34
64034;SHT31;50280;49.864;8.638;2022-09-09T09:48:11;19.07;69.40
64034;SHT31;50280;49.864;8.638;2022-09-09T09:50:50;19.32;68.67
64034;SHT31;50280;49.864;8.638;2022-09-09T09:53:27;19.46;69.32
64034;SHT31;50280;49.864;8.638;2022-09-09T09:56:05;19.72;67.76
64034;SHT31;50280;49.864;8.638;2022-09-09T09:58:49;20.24;66.45
64034;SHT31;50280;49.864;8.638;2022-09-09T10:01:25;20.47;65.50
64034;SHT31;50280;49.864;8.638;2022-09-09T10:04:14;20.41;62.82
64034;SHT31;50280;49.864;8.638;2022-09-09T10:06:49;20.26;63.70
64034;SHT31;50280;49.864;8.638;2022-09-09T10:09:24;20.26;64.73
64034;SHT31;50280;49.864;8.638;2022-09-09T10:12:06;20.43;64.33
64034;SHT31;50280;49.864;8.638;2022-09-09T10:15:02;20.52;62.41
64034;SHT31;50280;49.864;8.638;2022-09-09T10:17:58;20.48;61.87
64034;SHT31;50280;49.864;8.638;2022-09-09T10:21:04;20.34;62.32
64034;SHT31;50280;49.864;8.638;2022-09-09T10:24:04;20.10;63.41
64034;SHT31;50280;49.864;8.638;2022-09-09T10:27:05;19.92;64.09
64034;SHT31;50280;49.864;8.638;2022-09-09T10:30:02;19.75;64.29
64034;SHT31;50280;49.864;8.638;2022-09-09T10:32:58;19.59;65.41
64034;SHT31;50280;49.864;8.638;2022-09-09T10:35:50;19.51;66.00
64034;SHT31;50280;49.864;8.638;2022-09-09T10:38:39;19.30;70.03
64034;SHT31;50280;49.864;8.638;2022-09-09T10:41:18;18.95;72.86
64034;SHT31;50280;49.864;8.638;2022-09-09T10:44:22;18.33;76.85
64034;SHT31;50280;49.864;8.638;2022-09-09T10:50:42;17.26;81.95
64034;SHT31;50280;49.864;8.638;2022-09-09T10:53:35;17.05;81.45
64034;SHT31;50280;49.864;8.638;2022-09-09T10:56:20;16.89;82.06
64034;SHT31;50280;49.864;8.638;2022-09-09T10:58:58;16.83;82.52
64034;SHT31;50280;49.864;8.638;2022-09-09T11:01:41;16.79;84.18
64034;SHT31;50280;49.864;8.638;2022-09-09T11:04:23;16.82;85.08
64034;SHT31;50280;49.864;8.638;2022-09-09T11:07:13;16.76;83.06
64034;SHT31;50280;49.864;8.638;2022-09-09T11:10:02;16.78;84.91
64034;SHT31;50280;49.864;8.638;2022-09-09T11:12:49;16.78;84.49
64034;SHT31;50280;49.864;8.638;2022-09-09T11:15:38;16.79;83.46
64034;SHT31;50280;49.864;8.638;2022-09-09T11:18:21;16.90;82.89
64034;SHT31;50280;49.864;8.638;2022-09-09T11:21:00;17.07;82.82
64034;SHT31;50280;49.864;8.638;2022-09-09T11:23:46;17.26;82.26
64034;SHT31;50280;49.864;8.638;2022-09-09T11:26:31;17.42;81.69
64034;SHT31;50280;49.864;8.638;2022-09-09T11:29:32;17.67;80.74
64034;SHT31;50280;49.864;8.638;2022-09-09T11:32:39;17.78;80.49
64034;SHT31;50280;49.864;8.638;2022-09-09T11:35:38;17.86;78.86
64034;SHT31;50280;49.864;8.638;2022-09-09T11:38:27;17.93;79.44
64034;SHT31;50280;49.864;8.638;2022-09-09T11:41:08;17.95;78.50
64034;SHT31;50280;49.864;8.638;2022-09-09T11:43:42;18.00;78.64
64034;SHT31;50280;49.864;8.638;2022-09-09T11:46:20;18.07;78.05
64034;SHT31;50280;49.864;8.638;2022-09-09T11:49:26;18.12;77.65
64034;SHT31;50280;49.864;8.638;2022-09-09T11:52:10;18.18;75.60
64034;SHT31;50280;49.864;8.638;2022-09-09T11:54:46;18.31;74.76
64034;SHT31;50280;49.864;8.638;2022-09-09T11:57:31;18.49;74.53
64034;SHT31;50280;49.864;8.638;2022-09-09T12:00:32;18.58;73.99
64034;SHT31;50280;49.864;8.638;2022-09-09T12:03:33;18.64;73.61
64034;SHT31;50280;49.864;8.638;2022-09-09T12:06:16;18.73;72.06
64034;SHT31;50280;49.864;8.638;2022-09-09T12:09:07;18.82;72.20
64034;SHT31;50280;49.864;8.638;2022-09-09T12:11:50;19.23;71.68
64034;SHT31;50280;49.864;8.638;2022-09-09T12:14:36;19.61;70.95
64034;SHT31;50280;49.864;8.638;2022-09-09T12:17:19;19.74;69.53
64034;SHT31;50280;49.864;8.638;2022-09-09T12:20:01;19.82;68.62
64034;SHT31;50280;49.864;8.638;2022-09-09T12:23:03;19.81;68.82
64034;SHT31;50280;49.864;8.638;2022-09-09T12:26:07;19.75;66.83
64034;SHT31;50280;49.864;8.638;2022-09-09T12:29:14;19.72;67.18
64034;SHT31;50280;49.864;8.638;2022-09-09T12:32:03;19.68;65.51
64034;SHT31;50280;49.864;8.638;2022-09-09T12:34:44;19.68;67.08
64034;SHT31;50280;49.864;8.638;2022-09-09T12:37:28;19.66;64.99
64034;SHT31;50280;49.864;8.638;2022-09-09T12:40:20;19.68;63.68
64034;SHT31;50280;49.864;8.638;2022-09-09T12:42:55;19.76;63.54
64034;SHT31;50280;49.864;8.638;2022-09-09T12:45:31;19.85;62.87
64034;SHT31;50280;49.864;8.638;2022-09-09T12:48:06;19.87;61.22
64034;SHT31;50280;49.864;8.638;2022-09-09T12:50:44;19.92;59.72
64034;SHT31;50280;49.864;8.638;2022-09-09T12:53:23;19.94;58.43
64034;SHT31;50280;49.864;8.638;2022-09-09T12:56:02;20.03;56.42
64034;SHT31;50280;49.864;8.638;2022-09-09T12:58:38;20.09;57.05
64034;SHT31;50280;49.864;8.638;2022-09-09T13:01:21;20.09;56.70
64034;SHT31;50280;49.864;8.638;2022-09-09T13:03:57;20.03;57.09
64034;SHT31;50280;49.864;8.638;2022-09-09T13:06:31;20.02;57.13
64034;SHT31;50280;49.864;8.638;2022-09-09T13:09:04;19.97;57.54
64034;SHT31;50280;49.864;8.638;2022-09-09T13:11:39;19.90;58.65
64034;SHT31;50280;49.864;8.638;2022-09-09T13:14:18;19.89;59.33
64034;SHT31;50280;49.864;8.638;2022-09-09T13:17:03;19.74;60.61
64034;SHT31;50280;49.864;8.638;2022-09-09T13:19:43;19.62;61.50
64034;SHT31;50280;49.864;8.638;2022-09-09T13:22:22;19.46;60.44
64034;SHT31;50280;49.864;8.638;2022-09-09T13:25:05;19.30;62.06
64034;SHT31;50280;49.864;8.638;2022-09-09T13:27:56;19.14;60.61
64034;SHT31;50280;49.864;8.638;2022-09-09T13:30:33;18.98;61.74
64034;SHT31;50280;49.864;8.638;2022-09-09T13:33:30;18.85;61.03
64034;SHT31;50280;49.864;8.638;2022-09-09T13:36:07;18.72;60.68
64034;SHT31;50280;49.864;8.638;2022-09-09T13:38:53;18.65;61.64
64034;SHT31;50280;49.864;8.638;2022-09-09T13:41:31;18.57;63.01
64034;SHT31;50280;49.864;8.638;2022-09-09T13:44:19;18.48;62.54
64034;SHT31;50280;49.864;8.638;2022-09-09T13:47:00;18.41;63.59
64034;SHT31;50280;49.864;8.638;2022-09-09T13:49:38;18.33;63.64
64034;SHT31;50280;49.864;8.638;2022-09-09T13:52:11;18.45;65.26
64034;SHT31;50280;49.864;8.638;2022-09-09T13:54:47;18.76;65.98
64034;SHT31;50280;49.864;8.638;2022-09-09T13:57:22;18.69;66.15
64034;SHT31;50280;49.864;8.638;2022-09-09T13:59:56;18.57;67.51
64034;SHT31;50280;49.864;8.638;2022-09-09T14:02:29;18.54;67.66
64034;SHT31;50280;49.864;8.638;2022-09-09T14:05:03;18.45;68.22
64034;SHT31;50280;49.864;8.638;2022-09-09T14:07:37;18.47;67.46
64034;SHT31;50280;49.864;8.638;2022-09-09T14:10:11;18.43;68.79
64034;SHT31;50280;49.864;8.638;2022-09-09T14:12:44;18.44;68.74
64034;SHT31;50280;49.864;8.638;2022-09-09T14:15:17;18.58;68.59
64034;SHT31;50280;49.864;8.638;2022-09-09T14:17:49;18.73;69.16
64034;SHT31;50280;49.864;8.638;2022-09-09T14:20:23;18.81;69.05
64034;SHT31;50280;49.864;8.638;2022-09-09T14:22:55;18.92;68.46
64034;SHT31;50280;49.864;8.638;2022-09-09T14:25:27;18.99;68.64
64034;SHT31;50280;49.864;8.638;2022-09-09T14:28:00;18.99;68.21
64034;SHT31;50280;49.864;8.638;2022-09-09T14:30:33;19.04;68.80
64034;SHT31;50280;49.864;8.638;2022-09-09T14:33:06;19.14;68.49
64034;SHT31;50280;49.864;8.638;2022-09-09T14:35:43;19.14;67.99
64034;SHT31;50280;49.864;8.638;2022-09-09T14:38:15;19.19;67.81
64034;SHT31;50280;49.864;8.638;2022-09-09T14:40:47;19.14;67.82
64034;SHT31;50280;49.864;8.638;2022-09-09T14:43:20;19.14;68.43
64034;SHT31;50280;49.864;8.638;2022-09-09T14:45:52;19.13;66.57
64034;SHT31;50280;49.864;8.638;2022-09-09T14:48:25;19.13;66.69
64034;SHT31;50280;49.864;8.638;2022-09-09T14:51:04;19.13;66.14
64034;SHT31;50280;49.864;8.638;2022-09-09T14:53:40;19.20;65.71
64034;SHT31;50280;49.864;8.638;2022-09-09T14:56:14;19.26;64.64
64034;SHT31;50280;49.864;8.638;2022-09-09T14:58:50;19.32;64.29
64034;SHT31;50280;49.864;8.638;2022-09-09T15:01:24;19.38;64.78
64034;SHT31;50280;49.864;8.638;2022-09-09T15:03:59;19.43;64.27
64034;SHT31;50280;49.864;8.638;2022-09-09T15:06:35;19.44;64.41
64034;SHT31;50280;49.864;8.638;2022-09-09T15:09:08;19.41;64.29
64034;SHT31;50280;49.864;8.638;2022-09-09T15:11:40;19.37;64.12
64034;SHT31;50280;49.864;8.638;2022-09-09T15:14:13;19.31;65.08
64034;SHT31;50280;49.864;8.638;2022-09-09T15:16:45;19.26;64.65
64034;SHT31;50280;49.864;8.638;2022-09-09T15:19:18;19.24;65.31
64034;SHT31;50280;49.864;8.638;2022-09-09T15:21:51;19.16;65.67
64034;SHT31;50280;49.864;8.638;2022-09-09T15:24:24;19.11;66.05
64034;SHT31;50280;49.864;8.638;2022-09-09T15:26:56;19.09;66.51
64034;SHT31;50280;49.864;8.638;2022-09-09T15:29:29;19.06;66.85
64034;SHT31;50280;49.864;8.638;2022-09-09T15:32:01;19.03;66.97
64034;SHT31;50280;49.864;8.638;2022-09-09T15:34:34;19.00;67.37
64034;SHT31;50280;49.864;8.638;2022-09-09T15:37:09;18.95;68.51
64034;SHT31;50280;49.864;8.638;2022-09-09T15:39:42;18.92;68.39
64034;SHT31;50280;49.864;8.638;2022-09-09T15:42:14;18.95;67.83
64034;SHT31;50280;49.864;8.638;2022-09-09T15:44:46;18.95;68.44
64034;SHT31;50280;49.864;8.638;2022-09-09T15:47:19;19.06;68.68
64034;SHT31;50280;49.864;8.638;2022-09-09T15:49:51;19.28;68.19
64034;SHT31;50280;49.864;8.638;2022-09-09T15:52:25;19.57;66.81
64034;SHT31;50280;49.864;8.638;2022-09-09T15:54:57;19.79;66.10
64034;SHT31;50280;49.864;8.638;2022-09-09T15:57:30;19.87;65.61
64034;SHT31;50280;49.864;8.638;2022-09-09T16:00:02;19.86;65.92
64034;SHT31;50280;49.864;8.638;2022-09-09T16:02:36;19.82;65.99
64034;SHT31;50280;49.864;8.638;2022-09-09T16:05:09;19.75;65.87
64034;SHT31;50280;49.864;8.638;2022-09-09T16:07:43;19.59;66.21
64034;SHT31;50280;49.864;8.638;2022-09-09T16:10:15;19.50;65.83
64034;SHT31;50280;49.864;8.638;2022-09-09T16:12:47;19.46;65.10
64034;SHT31;50280;49.864;8.638;2022-09-09T16:15:20;19.58;64.98
64034;SHT31;50280;49.864;8.638;2022-09-09T16:17:53;19.64;64.74
64034;SHT31;50280;49.864;8.638;2022-09-09T16:20:25;19.62;62.60
64034;SHT31;50280;49.864;8.638;2022-09-09T16:22:59;19.59;61.82
64034;SHT31;50280;49.864;8.638;2022-09-09T16:25:31;19.48;62.17
64034;SHT31;50280;49.864;8.638;2022-09-09T16:28:04;19.41;62.96
64034;SHT31;50280;49.864;8.638;2022-09-09T16:30:36;19.31;63.20
64034;SHT31;50280;49.864;8.638;2022-09-09T16:33:09;19.21;63.43
64034;SHT31;50280;49.864;8.638;2022-09-09T16:35:41;19.07;64.19
64034;SHT31;50280;49.864;8.638;2022-09-09T16:38:16;18.99;64.58
64034;SHT31;50280;49.864;8.638;2022-09-09T16:40:48;18.86;64.94
64034;SHT31;50280;49.864;8.638;2022-09-09T16:43:21;18.81;65.08
64034;SHT31;50280;49.864;8.638;2022-09-09T16:45:53;18.75;65.31